sensor_id;sensor_type;location;lat;lon;timestamp;pressure;altitude;pressure_sealevel;temperature;humidity
65872;BME280;52653;50.080;21.992;2023-12-07T00:02:17;99083.09;;;0.65;95.48
65872;BME280;52653;50.080;21.992;2023-12-07T00:04:49;99086.95;;;0.62;95.38
65872;BME280;52653;50.080;21.992;2023-12-07T00:07:23;99088.21;;;0.57;95.30
65872;BME280;52653;50.080;21.992;2023-12-07T00:09:56;99089.70;;;0.55;95.45
65872;BME280;52653;50.080;21.992;2023-12-07T00:12:29;99094.50;;;0.54;95.55
65872;BME280;52653;50.080;21.992;2023-12-07T00:15:01;99090.31;;;0.53;95.85
65872;BME280;52653;50.080;21.992;2023-12-07T00:17:34;99090.48;;;0.53;95.88
65872;BME280;52653;50.080;21.992;2023-12-07T00:20:17;99091.65;;;0.51;95.80
65872;BME280;52653;50.080;21.992;2023-12-07T00:22:49;99092.70;;;0.51;96.24
65872;BME280;52653;50.080;21.992;2023-12-07T00:25:22;99092.57;;;0.53;96.67
65872;BME280;52653;50.080;21.992;2023-12-07T00:27:55;99097.30;;;0.55;96.71
65872;BME280;52653;50.080;21.992;2023-12-07T00:30:27;99096.46;;;0.57;96.88
65872;BME280;52653;50.080;21.992;2023-12-07T00:32:59;99096.70;;;0.59;96.83
65872;BME280;52653;50.080;21.992;2023-12-07T00:35:32;99092.41;;;0.60;96.92
65872;BME280;52653;50.080;21.992;2023-12-07T00:38:07;99093.13;;;0.61;96.90
65872;BME280;52653;50.080;21.992;2023-12-07T00:40:39;99090.39;;;0.62;96.76
65872;BME280;52653;50.080;21.992;2023-12-07T00:43:15;99094.14;;;0.60;96.58
65872;BME280;52653;50.080;21.992;2023-12-07T00:45:50;99087.39;;;0.59;96.51
65872;BME280;52653;50.080;21.992;2023-12-07T00:48:23;99088.61;;;0.60;96.70
65872;BME280;52653;50.080;21.992;2023-12-07T00:50:55;99090.34;;;0.60;96.92
65872;BME280;52653;50.080;21.992;2023-12-07T00:53:28;99093.46;;;0.61;96.95
65872;BME280;52653;50.080;21.992;2023-12-07T00:56:00;99096.91;;;0.61;96.82
65872;BME280;52653;50.080;21.992;2023-12-07T00:58:37;99088.96;;;0.60;96.82
65872;BME280;52653;50.080;21.992;2023-12-07T01:01:10;99085.66;;;0.59;96.81
65872;BME280;52653;50.080;21.992;2023-12-07T01:03:43;99087.39;;;0.59;97.14
65872;BME280;52653;50.080;21.992;2023-12-07T01:06:16;99084.48;;;0.60;97.09
65872;BME280;52653;50.080;21.992;2023-12-07T01:08:49;99081.38;;;0.61;97.19
65872;BME280;52653;50.080;21.992;2023-12-07T01:11:23;99081.73;;;0.61;97.19
65872;BME280;52653;50.080;21.992;2023-12-07T01:13:58;99081.36;;;0.60;97.17
65872;BME280;52653;50.080;21.992;2023-12-07T01:16:31;99081.86;;;0.59;97.16
65872;BME280;52653;50.080;21.992;2023-12-07T01:19:04;99079.42;;;0.58;97.29
65872;BME280;52653;50.080;21.992;2023-12-07T01:21:41;99083.41;;;0.59;97.32
65872;BME280;52653;50.080;21.992;2023-12-07T01:24:16;99084.98;;;0.59;97.34
65872;BME280;52653;50.080;21.992;2023-12-07T01:26:49;99084.00;;;0.62;97.53
65872;BME280;52653;50.080;21.992;2023-12-07T01:29:23;99084.35;;;0.62;97.39
65872;BME280;52653;50.080;21.992;2023-12-07T01:31:56;99081.09;;;0.62;97.45
65872;BME280;52653;50.080;21.992;2023-12-07T01:34:30;99088.18;;;0.63;97.51
65872;BME280;52653;50.080;21.992;2023-12-07T01:37:06;99087.15;;;0.63;97.32
65872;BME280;52653;50.080;21.992;2023-12-07T01:39:38;99086.10;;;0.63;97.41
65872;BME280;52653;50.080;21.992;2023-12-07T01:42:12;99082.89;;;0.64;97.35
65872;BME280;52653;50.080;21.992;2023-12-07T01:44:46;99082.55;;;0.65;97.42
65872;BME280;52653;50.080;21.992;2023-12-07T01:47:20;99080.50;;;0.65;97.51
65872;BME280;52653;50.080;21.992;2023-12-07T01:49:53;99077.09;;;0.67;97.52
65872;BME280;52653;50.080;21.992;2023-12-07T01:52:27;99075.36;;;0.67;97.43
65872;BME280;52653;50.080;21.992;2023-12-07T01:55:02;99073.48;;;0.67;97.56
65872;BME280;52653;50.080;21.992;2023-12-07T01:57:34;99071.91;;;0.66;97.34
65872;BME280;52653;50.080;21.992;2023-12-07T02:00:20;99072.09;;;0.67;97.41
65872;BME280;52653;50.080;21.992;2023-12-07T02:02:52;99072.96;;;0.67;97.48
65872;BME280;52653;50.080;21.992;2023-12-07T02:05:26;99077.63;;;0.68;97.52
65872;BME280;52653;50.080;21.992;2023-12-07T02:07:59;99078.48;;;0.68;97.57
65872;BME280;52653;50.080;21.992;2023-12-07T02:10:31;99077.98;;;0.68;97.53
65872;BME280;52653;50.080;21.992;2023-12-07T02:13:06;99079.72;;;0.68;97.52
65872;BME280;52653;50.080;21.992;2023-12-07T02:15:40;99085.98;;;0.70;97.73
65872;BME280;52653;50.080;21.992;2023-12-07T02:18:20;99085.29;;;0.70;97.54
65872;BME280;52653;50.080;21.992;2023-12-07T02:21:04;99088.58;;;0.70;97.68
65872;BME280;52653;50.080;21.992;2023-12-07T02:23:42;99089.96;;;0.70;97.68
65872;BME280;52653;50.080;21.992;2023-12-07T02:29:01;99085.95;;;0.69;97.70
65872;BME280;52653;50.080;21.992;2023-12-07T02:31:35;99084.56;;;0.69;97.82
65872;BME280;52653;50.080;21.992;2023-12-07T02:34:08;99084.26;;;0.70;97.87
65872;BME280;52653;50.080;21.992;2023-12-07T02:36:41;99088.27;;;0.71;97.91
65872;BME280;52653;50.080;21.992;2023-12-07T02:39:18;99091.05;;;0.73;97.85
65872;BME280;52653;50.080;21.992;2023-12-07T02:41:53;99088.50;;;0.74;97.95
65872;BME280;52653;50.080;21.992;2023-12-07T02:44:26;99089.54;;;0.74;97.89
65872;BME280;52653;50.080;21.992;2023-12-07T02:46:59;99089.20;;;0.74;97.81
65872;BME280;52653;50.080;21.992;2023-12-07T02:49:32;99089.02;;;0.74;97.86
65872;BME280;52653;50.080;21.992;2023-12-07T02:52:07;99088.50;;;0.74;97.75
65872;BME280;52653;50.080;21.992;2023-12-07T02:54:44;99092.17;;;0.75;97.94
65872;BME280;52653;50.080;21.992;2023-12-07T02:57:17;99093.05;;;0.75;98.04
65872;BME280;52653;50.080;21.992;2023-12-07T02:59:49;99097.36;;;0.76;98.01
65872;BME280;52653;50.080;21.992;2023-12-07T03:02:21;99096.33;;;0.76;97.91
65872;BME280;52653;50.080;21.992;2023-12-07T03:05:00;99092.71;;;0.76;97.92
65872;BME280;52653;50.080;21.992;2023-12-07T03:07:33;99092.88;;;0.76;98.11
65872;BME280;52653;50.080;21.992;2023-12-07T03:10:09;99092.73;;;0.77;98.05
65872;BME280;52653;50.080;21.992;2023-12-07T03:12:41;99091.21;;;0.77;98.10
65872;BME280;52653;50.080;21.992;2023-12-07T03:15:15;99083.61;;;0.77;98.17
65872;BME280;52653;50.080;21.992;2023-12-07T03:17:48;99084.27;;;0.76;98.15
65872;BME280;52653;50.080;21.992;2023-12-07T03:20:22;99085.77;;;0.75;98.08
65872;BME280;52653;50.080;21.992;2023-12-07T03:22:54;99084.89;;;0.74;98.24
65872;BME280;52653;50.080;21.992;2023-12-07T03:25:26;99082.13;;;0.74;98.31
65872;BME280;52653;50.080;21.992;2023-12-07T03:27:59;99086.77;;;0.74;98.31
65872;BME280;52653;50.080;21.992;2023-12-07T03:30:32;99089.88;;;0.74;98.32
65872;BME280;52653;50.080;21.992;2023-12-07T03:33:05;99092.15;;;0.75;98.47
65872;BME280;52653;50.080;21.992;2023-12-07T03:35:37;99095.94;;;0.74;98.32
65872;BME280;52653;50.080;21.992;2023-12-07T03:38:11;99095.92;;;0.74;98.45
65872;BME280;52653;50.080;21.992;2023-12-07T03:40:44;99095.23;;;0.74;98.49
65872;BME280;52653;50.080;21.992;2023-12-07T03:43:20;99096.95;;;0.73;98.53
65872;BME280;52653;50.080;21.992;2023-12-07T03:45:53;99098.49;;;0.74;98.58
65872;BME280;52653;50.080;21.992;2023-12-07T03:48:26;99098.85;;;0.73;98.54
65872;BME280;52653;50.080;21.992;2023-12-07T03:50:58;99099.19;;;0.73;98.54
65872;BME280;52653;50.080;21.992;2023-12-07T03:53:33;99095.92;;;0.74;98.59
65872;BME280;52653;50.080;21.992;2023-12-07T03:56:06;99097.30;;;0.74;98.77
65872;BME280;52653;50.080;21.992;2023-12-07T03:58:39;99098.53;;;0.75;98.68
65872;BME280;52653;50.080;21.992;2023-12-07T04:01:11;99096.28;;;0.74;98.82
65872;BME280;52653;50.080;21.992;2023-12-07T04:03:47;99096.61;;;0.74;98.61
65872;BME280;52653;50.080;21.992;2023-12-07T04:06:20;99095.91;;;0.73;98.76
65872;BME280;52653;50.080;21.992;2023-12-07T04:08:53;99096.42;;;0.73;98.77
65872;BME280;52653;50.080;21.992;2023-12-07T04:11:26;99096.77;;;0.73;98.99
65872;BME280;52653;50.080;21.992;2023-12-07T04:13:58;99098.66;;;0.73;98.70
65872;BME280;52653;50.080;21.992;2023-12-07T04:16:31;99104.88;;;0.73;98.80
65872;BME280;52653;50.080;21.992;2023-12-07T04:19:03;99108.81;;;0.72;98.73
65872;BME280;52653;50.080;21.992;2023-12-07T04:21:37;99108.27;;;0.71;98.78
65872;BME280;52653;50.080;21.992;2023-12-07T04:24:10;99107.59;;;0.71;98.87
65872;BME280;52653;50.080;21.992;2023-12-07T04:26:43;99113.14;;;0.72;98.80
65872;BME280;52653;50.080;21.992;2023-12-07T04:29:16;99113.64;;;0.72;99.03
65872;BME280;52653;50.080;21.992;2023-12-07T04:31:49;99119.38;;;0.73;98.98
65872;BME280;52653;50.080;21.992;2023-12-07T04:34:22;99116.45;;;0.73;99.06
65872;BME280;52653;50.080;21.992;2023-12-07T04:36:55;99117.65;;;0.73;98.91
65872;BME280;52653;50.080;21.992;2023-12-07T04:39:28;99121.09;;;0.73;99.06
65872;BME280;52653;50.080;21.992;2023-12-07T04:42:01;99119.20;;;0.73;99.17
65872;BME280;52653;50.080;21.992;2023-12-07T04:44:35;99124.08;;;0.75;99.16
65872;BME280;52653;50.080;21.992;2023-12-07T04:47:12;99121.28;;;0.73;99.18
65872;BME280;52653;50.080;21.992;2023-12-07T04:49:44;99124.71;;;0.73;99.20
65872;BME280;52653;50.080;21.992;2023-12-07T04:52:17;99127.10;;;0.71;99.41
65872;BME280;52653;50.080;21.992;2023-12-07T04:54:50;99126.23;;;0.72;99.47
65872;BME280;52653;50.080;21.992;2023-12-07T04:57:23;99126.40;;;0.71;99.41
65872;BME280;52653;50.080;21.992;2023-12-07T05:00:01;99126.41;;;0.72;99.51
65872;BME280;52653;50.080;21.992;2023-12-07T05:02:37;99128.84;;;0.72;99.61
65872;BME280;52653;50.080;21.992;2023-12-07T05:05:10;99132.27;;;0.71;99.61
65872;BME280;52653;50.080;21.992;2023-12-07T05:07:43;99130.70;;;0.71;99.59
65872;BME280;52653;50.080;21.992;2023-12-07T05:10:17;99134.50;;;0.71;99.60
65872;BME280;52653;50.080;21.992;2023-12-07T05:12:49;99136.56;;;0.71;99.83
65872;BME280;52653;50.080;21.992;2023-12-07T05:15:22;99136.73;;;0.70;99.79
65872;BME280;52653;50.080;21.992;2023-12-07T05:17:56;99139.66;;;0.70;99.88
65872;BME280;52653;50.080;21.992;2023-12-07T05:20:28;99140.70;;;0.70;99.93
65872;BME280;52653;50.080;21.992;2023-12-07T05:23:02;99144.14;;;0.70;99.97
65872;BME280;52653;50.080;21.992;2023-12-07T05:25:35;99147.58;;;0.69;99.87
65872;BME280;52653;50.080;21.992;2023-12-07T05:28:13;99146.94;;;0.71;100.00
65872;BME280;52653;50.080;21.992;2023-12-07T05:30:46;99149.51;;;0.71;100.00
65872;BME280;52653;50.080;21.992;2023-12-07T05:33:19;99151.59;;;0.71;100.00
65872;BME280;52653;50.080;21.992;2023-12-07T05:35:55;99150.77;;;0.72;99.99
65872;BME280;52653;50.080;21.992;2023-12-07T05:38:28;99154.88;;;0.71;100.00
65872;BME280;52653;50.080;21.992;2023-12-07T05:41:00;99153.32;;;0.71;100.00
65872;BME280;52653;50.080;21.992;2023-12-07T05:43:33;99159.70;;;0.71;100.00
65872;BME280;52653;50.080;21.992;2023-12-07T05:46:06;99158.64;;;0.70;100.00
65872;BME280;52653;50.080;21.992;2023-12-07T05:48:40;99157.92;;;0.69;100.00
65872;BME280;52653;50.080;21.992;2023-12-07T05:51:16;99161.55;;;0.69;100.00
65872;BME280;52653;50.080;21.992;2023-12-07T05:53:52;99166.73;;;0.69;100.00
65872;BME280;52653;50.080;21.992;2023-12-07T05:56:26;99167.95;;;0.69;100.00
65872;BME280;52653;50.080;21.992;2023-12-07T05:59:05;99170.02;;;0.69;100.00
65872;BME280;52653;50.080;21.992;2023-12-07T06:01:38;99168.64;;;0.70;100.00
65872;BME280;52653;50.080;21.992;2023-12-07T06:04:11;99170.56;;;0.70;100.00
65872;BME280;52653;50.080;21.992;2023-12-07T06:06:45;99170.23;;;0.71;100.00
65872;BME280;52653;50.080;21.992;2023-12-07T06:09:21;99172.48;;;0.71;100.00
65872;BME280;52653;50.080;21.992;2023-12-07T06:11:53;99176.98;;;0.72;100.00
65872;BME280;52653;50.080;21.992;2023-12-07T06:14:28;99177.85;;;0.72;100.00
65872;BME280;52653;50.080;21.992;2023-12-07T06:17:02;99173.90;;;0.72;100.00
65872;BME280;52653;50.080;21.992;2023-12-07T06:19:35;99177.19;;;0.73;100.00
65872;BME280;52653;50.080;21.992;2023-12-07T06:22:08;99179.96;;;0.73;100.00
65872;BME280;52653;50.080;21.992;2023-12-07T06:24:40;99179.63;;;0.74;100.00
65872;BME280;52653;50.080;21.992;2023-12-07T06:27:17;99179.65;;;0.75;100.00
65872;BME280;52653;50.080;21.992;2023-12-07T06:29:50;99184.19;;;0.76;100.00
65872;BME280;52653;50.080;21.992;2023-12-07T06:32:29;99185.30;;;0.78;100.00
65872;BME280;52653;50.080;21.992;2023-12-07T06:35:03;99187.58;;;0.79;100.00
65872;BME280;52653;50.080;21.992;2023-12-07T06:37:37;99190.05;;;0.81;100.00
65872;BME280;52653;50.080;21.992;2023-12-07T06:40:14;99192.18;;;0.83;100.00
65872;BME280;52653;50.080;21.992;2023-12-07T06:42:47;99195.16;;;0.85;100.00
65872;BME280;52653;50.080;21.992;2023-12-07T06:45:22;99197.16;;;0.88;100.00
65872;BME280;52653;50.080;21.992;2023-12-07T06:47:55;99197.64;;;0.92;100.00
65872;BME280;52653;50.080;21.992;2023-12-07T06:50:27;99202.73;;;0.95;100.00
65872;BME280;52653;50.080;21.992;2023-12-07T06:53:01;99200.90;;;0.97;100.00
65872;BME280;52653;50.080;21.992;2023-12-07T06:55:33;99200.96;;;0.99;100.00
65872;BME280;52653;50.080;21.992;2023-12-07T06:58:11;99203.86;;;1.04;100.00
65872;BME280;52653;50.080;21.992;2023-12-07T07:00:44;99203.79;;;1.07;99.91
65872;BME280;52653;50.080;21.992;2023-12-07T07:03:18;99206.19;;;1.12;100.00
65872;BME280;52653;50.080;21.992;2023-12-07T07:05:51;99209.60;;;1.16;99.93
65872;BME280;52653;50.080;21.992;2023-12-07T07:08:24;99209.34;;;1.20;99.70
65872;BME280;52653;50.080;21.992;2023-12-07T07:10:57;99212.02;;;1.22;99.70
65872;BME280;52653;50.080;21.992;2023-12-07T07:13:29;99210.33;;;1.24;99.44
65872;BME280;52653;50.080;21.992;2023-12-07T07:16:02;99209.83;;;1.25;99.18
65872;BME280;52653;50.080;21.992;2023-12-07T07:18:38;99209.48;;;1.25;98.99
65872;BME280;52653;50.080;21.992;2023-12-07T07:21:11;99212.80;;;1.27;98.85
65872;BME280;52653;50.080;21.992;2023-12-07T07:23:48;99216.69;;;1.28;98.80
65872;BME280;52653;50.080;21.992;2023-12-07T07:26:23;99217.92;;;1.29;98.69
65872;BME280;52653;50.080;21.992;2023-12-07T07:28:57;99219.38;;;1.32;98.66
65872;BME280;52653;50.080;21.992;2023-12-07T07:31:30;99219.48;;;1.35;98.55
65872;BME280;52653;50.080;21.992;2023-12-07T07:34:05;99217.83;;;1.38;98.53
65872;BME280;52653;50.080;21.992;2023-12-07T07:36:39;99220.71;;;1.42;98.31
65872;BME280;52653;50.080;21.992;2023-12-07T07:39:11;99221.21;;;1.48;98.17
65872;BME280;52653;50.080;21.992;2023-12-07T07:41:45;99219.33;;;1.54;98.12
65872;BME280;52653;50.080;21.992;2023-12-07T07:44:18;99222.45;;;1.61;97.80
65872;BME280;52653;50.080;21.992;2023-12-07T07:46:50;99222.65;;;1.68;97.59
65872;BME280;52653;50.080;21.992;2023-12-07T07:49:24;99225.34;;;1.78;97.27
65872;BME280;52653;50.080;21.992;2023-12-07T07:51:56;99227.12;;;1.86;97.01
65872;BME280;52653;50.080;21.992;2023-12-07T07:54:32;99224.58;;;1.94;96.71
65872;BME280;52653;50.080;21.992;2023-12-07T07:57:06;99228.35;;;2.00;96.43
65872;BME280;52653;50.080;21.992;2023-12-07T07:59:42;99228.90;;;2.07;96.07
65872;BME280;52653;50.080;21.992;2023-12-07T08:02:15;99230.96;;;2.14;95.94
65872;BME280;52653;50.080;21.992;2023-12-07T08:04:48;99232.88;;;2.20;95.46
65872;BME280;52653;50.080;21.992;2023-12-07T08:07:21;99236.99;;;2.26;95.18
65872;BME280;52653;50.080;21.992;2023-12-07T08:09:54;99237.67;;;2.31;94.95
65872;BME280;52653;50.080;21.992;2023-12-07T08:12:27;99239.52;;;2.36;94.65
65872;BME280;52653;50.080;21.992;2023-12-07T08:15:03;99238.23;;;2.41;94.37
65872;BME280;52653;50.080;21.992;2023-12-07T08:17:38;99242.52;;;2.45;93.80
65872;BME280;52653;50.080;21.992;2023-12-07T08:20:12;99244.80;;;2.47;93.46
65872;BME280;52653;50.080;21.992;2023-12-07T08:22:46;99248.07;;;2.46;92.88
65872;BME280;52653;50.080;21.992;2023-12-07T08:25:22;99251.08;;;2.49;92.90
65872;BME280;52653;50.080;21.992;2023-12-07T08:27:55;99253.59;;;2.52;92.80
65872;BME280;52653;50.080;21.992;2023-12-07T08:30:27;99257.17;;;2.57;92.42
65872;BME280;52653;50.080;21.992;2023-12-07T08:33:03;99260.61;;;2.64;92.53
65872;BME280;52653;50.080;21.992;2023-12-07T08:35:36;99256.31;;;2.71;91.86
65872;BME280;52653;50.080;21.992;2023-12-07T08:38:08;99262.50;;;2.77;91.84
65872;BME280;52653;50.080;21.992;2023-12-07T08:40:41;99265.23;;;2.82;91.45
65872;BME280;52653;50.080;21.992;2023-12-07T08:43:14;99268.10;;;2.86;91.09
65872;BME280;52653;50.080;21.992;2023-12-07T08:45:47;99275.66;;;2.91;90.80
65872;BME280;52653;50.080;21.992;2023-12-07T08:48:20;99277.67;;;2.88;89.79
65872;BME280;52653;50.080;21.992;2023-12-07T08:50:56;99281.86;;;2.82;89.80
65872;BME280;52653;50.080;21.992;2023-12-07T08:53:29;99281.50;;;2.81;90.28
65872;BME280;52653;50.080;21.992;2023-12-07T08:56:06;99284.49;;;2.77;90.01
65872;BME280;52653;50.080;21.992;2023-12-07T08:58:40;99284.32;;;2.69;89.57
65872;BME280;52653;50.080;21.992;2023-12-07T09:01:13;99284.17;;;2.64;89.98
65872;BME280;52653;50.080;21.992;2023-12-07T09:04:00;99280.60;;;2.59;90.07
65872;BME280;52653;50.080;21.992;2023-12-07T09:06:34;99281.90;;;2.56;90.04
65872;BME280;52653;50.080;21.992;2023-12-07T09:09:06;99283.47;;;2.50;89.88
65872;BME280;52653;50.080;21.992;2023-12-07T09:11:39;99285.19;;;2.43;90.06
65872;BME280;52653;50.080;21.992;2023-12-07T09:14:11;99286.14;;;2.40;90.25
65872;BME280;52653;50.080;21.992;2023-12-07T09:16:46;99285.20;;;2.43;90.59
65872;BME280;52653;50.080;21.992;2023-12-07T09:19:19;99286.02;;;2.48;90.13
65872;BME280;52653;50.080;21.992;2023-12-07T09:21:51;99287.30;;;2.51;89.92
65872;BME280;52653;50.080;21.992;2023-12-07T09:24:24;99286.14;;;2.60;90.38
65872;BME280;52653;50.080;21.992;2023-12-07T09:26:58;99289.77;;;2.72;90.25
65872;BME280;52653;50.080;21.992;2023-12-07T09:29:30;99292.22;;;2.81;89.23
65872;BME280;52653;50.080;21.992;2023-12-07T09:32:03;99292.73;;;2.88;89.34
65872;BME280;52653;50.080;21.992;2023-12-07T09:34:35;99286.22;;;2.98;89.17
65872;BME280;52653;50.080;21.992;2023-12-07T09:37:11;99280.59;;;3.09;89.15
65872;BME280;52653;50.080;21.992;2023-12-07T09:39:43;99279.86;;;3.23;89.00
65872;BME280;52653;50.080;21.992;2023-12-07T09:42:16;99281.13;;;3.33;88.53
65872;BME280;52653;50.080;21.992;2023-12-07T09:44:53;99284.59;;;3.41;88.28
65872;BME280;52653;50.080;21.992;2023-12-07T09:47:27;99280.20;;;3.45;87.80
65872;BME280;52653;50.080;21.992;2023-12-07T09:50:09;99282.98;;;3.46;87.30
65872;BME280;52653;50.080;21.992;2023-12-07T09:52:43;99283.13;;;3.44;87.08
65872;BME280;52653;50.080;21.992;2023-12-07T09:55:30;99284.84;;;3.44;86.71
65872;BME280;52653;50.080;21.992;2023-12-07T09:58:06;99284.17;;;3.45;86.88
65872;BME280;52653;50.080;21.992;2023-12-07T10:00:40;99282.81;;;3.46;86.73
65872;BME280;52653;50.080;21.992;2023-12-07T10:03:24;99279.91;;;3.48;86.65
65872;BME280;52653;50.080;21.992;2023-12-07T10:06:17;99277.88;;;3.51;86.68
65872;BME280;52653;50.080;21.992;2023-12-07T10:09:13;99279.55;;;3.55;86.49
65872;BME280;52653;50.080;21.992;2023-12-07T10:12:04;99282.73;;;3.50;85.38
65872;BME280;52653;50.080;21.992;2023-12-07T10:14:57;99281.52;;;3.51;85.65
65872;BME280;52653;50.080;21.992;2023-12-07T10:17:51;99283.36;;;3.64;86.12
65872;BME280;52653;50.080;21.992;2023-12-07T10:20:36;99284.52;;;3.78;85.89
65872;BME280;52653;50.080;21.992;2023-12-07T10:23:18;99285.11;;;3.90;85.13
65872;BME280;52653;50.080;21.992;2023-12-07T10:26:14;99284.33;;;3.94;84.06
65872;BME280;52653;50.080;21.992;2023-12-07T10:29:12;99283.25;;;4.01;83.65
65872;BME280;52653;50.080;21.992;2023-12-07T10:32:20;99282.02;;;4.08;83.42
65872;BME280;52653;50.080;21.992;2023-12-07T10:34:56;99279.91;;;4.17;83.40
65872;BME280;52653;50.080;21.992;2023-12-07T10:37:55;99277.64;;;4.26;83.07
65872;BME280;52653;50.080;21.992;2023-12-07T10:40:31;99276.72;;;4.32;82.59
65872;BME280;52653;50.080;21.992;2023-12-07T10:43:08;99279.87;;;4.43;82.75
65872;BME280;52653;50.080;21.992;2023-12-07T10:46:06;99278.83;;;4.53;82.40
65872;BME280;52653;50.080;21.992;2023-12-07T10:48:49;99280.48;;;4.58;81.26
65872;BME280;52653;50.080;21.992;2023-12-07T10:51:41;99281.92;;;4.52;81.26
65872;BME280;52653;50.080;21.992;2023-12-07T10:54:40;99285.52;;;4.48;81.93
65872;BME280;52653;50.080;21.992;2023-12-07T10:57:37;99288.20;;;4.43;82.06
65872;BME280;52653;50.080;21.992;2023-12-07T11:00:32;99283.92;;;4.36;81.99
65872;BME280;52653;50.080;21.992;2023-12-07T11:03:36;99294.65;;;4.26;81.75
65872;BME280;52653;50.080;21.992;2023-12-07T11:06:33;99292.48;;;4.12;81.40
65872;BME280;52653;50.080;21.992;2023-12-07T11:09:32;99293.05;;;4.05;81.97
65872;BME280;52653;50.080;21.992;2023-12-07T11:12:19;99293.44;;;3.98;81.85
65872;BME280;52653;50.080;21.992;2023-12-07T11:18:33;99292.05;;;3.81;82.11
65872;BME280;52653;50.080;21.992;2023-12-07T11:21:16;99293.41;;;3.80;82.75
65872;BME280;52653;50.080;21.992;2023-12-07T11:24:10;99288.54;;;3.80;82.95
65872;BME280;52653;50.080;21.992;2023-12-07T11:27:08;99294.91;;;3.78;82.51
65872;BME280;52653;50.080;21.992;2023-12-07T11:30:01;99294.64;;;3.72;82.26
65872;BME280;52653;50.080;21.992;2023-12-07T11:32:57;99291.45;;;3.78;82.60
65872;BME280;52653;50.080;21.992;2023-12-07T11:36:06;99290.73;;;3.76;81.51
65872;BME280;52653;50.080;21.992;2023-12-07T11:39:16;99290.12;;;3.72;81.73
65872;BME280;52653;50.080;21.992;2023-12-07T11:42:10;99290.08;;;3.79;82.67
65872;BME280;52653;50.080;21.992;2023-12-07T11:44:48;99287.42;;;3.84;82.42
65872;BME280;52653;50.080;21.992;2023-12-07T11:47:22;99289.91;;;3.87;82.04
65872;BME280;52653;50.080;21.992;2023-12-07T11:49:55;99288.09;;;3.92;82.51
65872;BME280;52653;50.080;21.992;2023-12-07T11:52:35;99288.55;;;3.96;82.25
65872;BME280;52653;50.080;21.992;2023-12-07T11:55:09;99285.32;;;4.00;82.00
65872;BME280;52653;50.080;21.992;2023-12-07T11:57:45;99282.95;;;4.04;81.31
65872;BME280;52653;50.080;21.992;2023-12-07T12:00:20;99286.09;;;4.05;80.54
65872;BME280;52653;50.080;21.992;2023-12-07T12:02:53;99287.80;;;4.02;80.67
65872;BME280;52653;50.080;21.992;2023-12-07T12:05:32;99289.73;;;4.04;80.64
65872;BME280;52653;50.080;21.992;2023-12-07T12:08:05;99288.71;;;3.97;79.59
65872;BME280;52653;50.080;21.992;2023-12-07T12:10:39;99295.89;;;3.83;79.52
65872;BME280;52653;50.080;21.992;2023-12-07T12:13:14;99296.29;;;3.68;80.39
65872;BME280;52653;50.080;21.992;2023-12-07T12:15:46;99298.67;;;3.58;81.14
65872;BME280;52653;50.080;21.992;2023-12-07T12:18:22;99294.77;;;3.46;81.19
65872;BME280;52653;50.080;21.992;2023-12-07T12:20:58;99297.44;;;3.33;81.66
65872;BME280;52653;50.080;21.992;2023-12-07T12:23:31;99298.39;;;3.22;82.05
65872;BME280;52653;50.080;21.992;2023-12-07T12:26:04;99303.92;;;3.07;81.93
65872;BME280;52653;50.080;21.992;2023-12-07T12:28:38;99304.88;;;2.96;82.37
65872;BME280;52653;50.080;21.992;2023-12-07T12:31:15;99306.52;;;2.85;82.60
65872;BME280;52653;50.080;21.992;2023-12-07T12:33:50;99306.89;;;2.79;83.08
65872;BME280;52653;50.080;21.992;2023-12-07T12:36:26;99311.84;;;2.76;83.33
65872;BME280;52653;50.080;21.992;2023-12-07T12:39:02;99312.78;;;2.72;83.30
65872;BME280;52653;50.080;21.992;2023-12-07T12:41:46;99313.43;;;2.64;82.78
65872;BME280;52653;50.080;21.992;2023-12-07T12:44:20;99314.05;;;2.54;82.90
65872;BME280;52653;50.080;21.992;2023-12-07T12:47:07;99313.72;;;2.54;83.81
65872;BME280;52653;50.080;21.992;2023-12-07T12:49:43;99316.54;;;2.56;84.18
65872;BME280;52653;50.080;21.992;2023-12-07T12:52:19;99317.98;;;2.58;84.35
65872;BME280;52653;50.080;21.992;2023-12-07T12:54:51;99319.05;;;2.60;84.66
65872;BME280;52653;50.080;21.992;2023-12-07T12:57:24;99322.02;;;2.61;84.83
65872;BME280;52653;50.080;21.992;2023-12-07T12:59:59;99321.41;;;2.57;84.73
65872;BME280;52653;50.080;21.992;2023-12-07T13:02:32;99325.19;;;2.50;84.74
65872;BME280;52653;50.080;21.992;2023-12-07T13:05:08;99326.01;;;2.42;84.75
65872;BME280;52653;50.080;21.992;2023-12-07T13:07:41;99327.63;;;2.30;84.90
65872;BME280;52653;50.080;21.992;2023-12-07T13:10:42;99332.74;;;2.21;85.23
65872;BME280;52653;50.080;21.992;2023-12-07T13:13:15;99333.55;;;2.14;85.66
65872;BME280;52653;50.080;21.992;2023-12-07T13:15:50;99336.16;;;2.07;86.05
65872;BME280;52653;50.080;21.992;2023-12-07T13:18:25;99334.07;;;2.01;86.19
65872;BME280;52653;50.080;21.992;2023-12-07T13:20:58;99333.82;;;1.98;86.39
65872;BME280;52653;50.080;21.992;2023-12-07T13:23:31;99341.16;;;1.95;86.57
65872;BME280;52653;50.080;21.992;2023-12-07T13:26:05;99340.41;;;1.92;86.58
65872;BME280;52653;50.080;21.992;2023-12-07T13:28:40;99342.72;;;1.90;86.70
65872;BME280;52653;50.080;21.992;2023-12-07T13:31:13;99344.41;;;1.88;86.92
65872;BME280;52653;50.080;21.992;2023-12-07T13:33:47;99346.63;;;1.87;87.08
65872;BME280;52653;50.080;21.992;2023-12-07T13:36:27;99348.82;;;1.85;87.07
65872;BME280;52653;50.080;21.992;2023-12-07T13:39:00;99348.04;;;1.81;87.05
65872;BME280;52653;50.080;21.992;2023-12-07T13:41:39;99354.11;;;1.77;87.20
65872;BME280;52653;50.080;21.992;2023-12-07T13:44:11;99356.59;;;1.72;87.46
65872;BME280;52653;50.080;21.992;2023-12-07T13:46:47;99355.56;;;1.67;87.40
65872;BME280;52653;50.080;21.992;2023-12-07T13:49:20;99360.41;;;1.62;87.60
65872;BME280;52653;50.080;21.992;2023-12-07T13:52:07;99361.08;;;1.55;87.79
65872;BME280;52653;50.080;21.992;2023-12-07T13:54:41;99355.83;;;1.47;87.83